Time;durP1;ratioP1;P1;durP2;ratioP2;P2;SDS_P1;SDS_P2;PMS_P1;PMS_P2;Temp;Humidity;BMP_temperature;BMP_pressure;BME280_temperature;BME280_humidity;BME280_pressure;Samples;Min_cycle;Max_cycle;Signal;HPM_P1;HPM_P2
2023/07/06 00:00:30;;;;;;;1.00;0.70;;;11.70;99.90;;;;;;5035073;28;20673;-69
2023/07/06 00:02:56;;;;;;;1.58;1.48;;;11.70;99.90;;;;;;5034925;28;20398;-70
2023/07/06 00:05:22;;;;;;;1.40;1.30;;;11.50;99.90;;;;;;5035142;28;20221;-69
2023/07/06 00:07:48;;;;;;;1.50;1.30;;;11.50;99.90;;;;;;5034969;28;20281;-69
2023/07/06 00:10:13;;;;;;;1.73;1.57;;;11.50;99.90;;;;;;5034737;28;20286;-70
2023/07/06 00:12:39;;;;;;;1.03;1.00;;;11.40;99.90;;;;;;5034687;28;20194;-70
2023/07/06 00:15:05;;;;;;;5.00;2.50;;;11.50;99.90;;;;;;5034705;28;20250;-69
2023/07/06 00:17:31;;;;;;;1.10;1.10;;;11.50;99.90;;;;;;5033373;28;20198;-69
2023/07/06 00:19:56;;;;;;;0.80;0.80;;;11.60;99.90;;;;;;5034092;28;20402;-70
2023/07/06 00:22:23;;;;;;;1.97;1.60;;;11.50;99.90;;;;;;5034374;28;20226;-69
2023/07/06 00:24:49;;;;;;;2.00;1.03;;;11.50;99.90;;;;;;5034738;28;20163;-70
2023/07/06 00:27:18;;;;;;;2.00;1.83;;;11.50;99.90;;;;;;5034400;28;20790;-70
2023/07/06 00:29:56;;;;;;;0.90;0.90;;;11.50;99.90;;;;;;5034837;28;20194;-70
2023/07/06 00:32:28;;;;;;;2.33;2.23;;;11.50;99.90;;;;;;5033584;28;20750;-69
2023/07/06 00:34:59;;;;;;;0.40;0.40;;;11.50;99.90;;;;;;5034672;28;20955;-70
2023/07/06 00:37:25;;;;;;;0.63;0.63;;;11.40;99.90;;;;;;5034512;28;20436;-70
2023/07/06 00:39:51;;;;;;;0.70;0.70;;;11.40;99.90;;;;;;5034301;28;20427;-71
2023/07/06 00:42:19;;;;;;;2.40;2.10;;;11.40;99.90;;;;;;5034056;28;20179;-69
2023/07/06 00:44:52;;;;;;;3.93;1.87;;;11.40;99.90;;;;;;5034288;28;20762;-70
2023/07/06 00:47:23;;;;;;;3.80;2.40;;;11.40;99.90;;;;;;5034088;28;20483;-70
2023/07/06 00:49:50;;;;;;;1.73;1.53;;;11.40;99.90;;;;;;5034060;28;20442;-68
2023/07/06 00:52:16;;;;;;;1.23;0.87;;;11.30;99.90;;;;;;5033921;28;20412;-69
2023/07/06 00:54:43;;;;;;;3.50;1.10;;;11.30;99.90;;;;;;5034329;28;20405;-69
2023/07/06 00:57:11;;;;;;;2.00;1.40;;;11.20;99.90;;;;;;5034092;28;20187;-69
2023/07/06 00:59:39;;;;;;;7.50;2.20;;;11.20;99.90;;;;;;5034071;28;20400;-68
2023/07/06 01:02:08;;;;;;;11.85;2.85;;;11.30;99.90;;;;;;5033730;28;20459;-70
2023/07/06 01:04:34;;;;;;;2.42;2.22;;;11.40;99.90;;;;;;5034004;28;20195;-70
2023/07/06 01:07:00;;;;;;;2.20;1.73;;;11.30;99.90;;;;;;5033847;28;20610;-69
2023/07/06 01:09:29;;;;;;;1.13;0.90;;;11.30;99.90;;;;;;5033781;28;20461;-69
2023/07/06 01:11:55;;;;;;;1.20;1.10;;;11.20;99.90;;;;;;5033681;28;20573;-70
2023/07/06 01:14:21;;;;;;;2.17;2.08;;;11.20;99.90;;;;;;5033696;28;20163;-69
2023/07/06 01:16:54;;;;;;;1.27;0.97;;;11.20;99.90;;;;;;5033725;28;20402;-69
2023/07/06 01:19:31;;;;;;;0.90;0.90;;;11.20;99.90;;;;;;5032377;28;20925;-70
2023/07/06 01:22:09;;;;;;;2.00;1.90;;;11.20;99.90;;;;;;5033394;28;20405;-69
2023/07/06 01:24:38;;;;;;;0.68;0.50;;;11.20;99.90;;;;;;5034156;28;20175;-69
2023/07/06 01:27:28;;;;;;;1.47;1.47;;;11.20;99.90;;;;;;5033616;28;20222;-69
2023/07/06 01:30:12;;;;;;;1.23;1.23;;;11.20;99.90;;;;;;5033419;28;20546;-69
2023/07/06 01:32:44;;;;;;;2.75;1.77;;;11.20;99.90;;;;;;5033321;28;20480;-70
2023/07/06 01:35:15;;;;;;;3.85;3.55;;;11.20;99.90;;;;;;5033729;28;20178;-70
2023/07/06 01:37:43;;;;;;;1.00;1.00;;;11.20;99.90;;;;;;5033548;28;20224;-69
2023/07/06 01:40:10;;;;;;;3.50;1.67;;;11.20;99.90;;;;;;5033615;28;20170;-69
2023/07/06 01:42:40;;;;;;;8.73;2.40;;;11.20;99.90;;;;;;5033219;28;20194;-68
2023/07/06 01:45:16;;;;;;;1.70;1.60;;;11.20;99.90;;;;;;5033578;28;20183;-68
2023/07/06 01:47:48;;;;;;;1.50;1.40;;;11.30;99.90;;;;;;5033359;28;20449;-69
2023/07/06 01:50:17;;;;;;;2.27;2.00;;;11.30;99.90;;;;;;5033188;28;20523;-70
2023/07/06 01:53:12;;;;;;;3.00;2.80;;;11.30;99.90;;;;;;5033059;28;20764;-70
2023/07/06 01:55:43;;;;;;;2.13;2.03;;;11.40;99.90;;;;;;5033517;28;20425;-68
2023/07/06 01:58:09;;;;;;;1.37;1.37;;;11.40;99.90;;;;;;5033197;28;20457;-69
2023/07/06 02:00:39;;;;;;;1.80;0.70;;;11.40;99.90;;;;;;5033391;28;20446;-69
2023/07/06 02:03:06;;;;;;;2.63;1.97;;;11.40;99.90;;;;;;5033065;28;20198;-70
2023/07/06 02:05:36;;;;;;;0.90;0.70;;;11.50;99.90;;;;;;5033098;28;20467;-69
2023/07/06 02:08:05;;;;;;;2.70;2.50;;;11.50;99.90;;;;;;5033087;28;20441;-69
2023/07/06 02:10:31;;;;;;;1.50;1.40;;;11.50;99.90;;;;;;5033116;28;20458;-69
2023/07/06 02:12:57;;;;;;;2.40;2.03;;;11.60;99.90;;;;;;5032872;28;20663;-70
2023/07/06 02:15:23;;;;;;;1.00;1.00;;;11.60;99.90;;;;;;5033242;28;20489;-69
2023/07/06 02:17:55;;;;;;;1.73;0.60;;;11.60;99.90;;;;;;5032936;28;20471;-70
2023/07/06 02:20:20;;;;;;;0.80;0.80;;;11.60;99.90;;;;;;5033481;28;20492;-70
2023/07/06 02:22:46;;;;;;;1.97;1.20;;;11.60;99.90;;;;;;5032784;28;20413;-70
2023/07/06 02:25:13;;;;;;;3.87;1.93;;;11.50;99.90;;;;;;5032937;28;20506;-69
2023/07/06 02:27:39;;;;;;;0.60;0.60;;;11.50;99.90;;;;;;5033006;28;20445;-70
2023/07/06 02:30:06;;;;;;;0.93;0.93;;;11.40;99.90;;;;;;5032791;28;20815;-69
2023/07/06 02:32:32;;;;;;;1.17;1.07;;;11.40;99.90;;;;;;5032735;28;20398;-69
2023/07/06 02:34:58;;;;;;;2.23;2.13;;;11.40;99.90;;;;;;5032898;28;20485;-70
2023/07/06 02:37:24;;;;;;;2.63;2.43;;;11.50;99.90;;;;;;5032794;28;20508;-68
2023/07/06 02:39:50;;;;;;;2.00;1.90;;;11.60;99.90;;;;;;5033295;28;20410;-69
2023/07/06 02:42:17;;;;;;;1.30;1.30;;;11.50;99.90;;;;;;5032672;28;20413;-69
2023/07/06 02:44:43;;;;;;;1.03;0.93;;;11.60;99.90;;;;;;5035776;28;20401;-70
2023/07/06 02:47:09;;;;;;;1.30;1.20;;;11.60;99.90;;;;;;5036244;28;20452;-70
2023/07/06 02:49:35;;;;;;;1.67;1.57;;;11.70;99.90;;;;;;5036367;28;20226;-70
2023/07/06 02:52:01;;;;;;;2.30;0.57;;;11.80;99.90;;;;;;5036311;28;20433;-70
2023/07/06 02:54:27;;;;;;;2.77;2.47;;;11.80;99.90;;;;;;5036530;28;20252;-69
2023/07/06 02:56:53;;;;;;;0.60;0.60;;;11.90;99.90;;;;;;5036113;28;20555;-70
2023/07/06 02:59:19;;;;;;;1.80;1.40;;;11.90;99.90;;;;;;5036363;28;20450;-69
2023/07/06 03:01:47;;;;;;;1.63;1.53;;;12.00;99.90;;;;;;5036023;28;20400;-69
2023/07/06 03:04:13;;;;;;;1.03;1.00;;;12.10;99.90;;;;;;5036227;28;20255;-70
2023/07/06 03:06:39;;;;;;;1.23;0.80;;;12.10;99.90;;;;;;5036281;28;20456;-70
2023/07/06 03:09:07;;;;;;;7.83;2.27;;;12.10;99.90;;;;;;5035969;28;20540;-69
2023/07/06 03:11:33;;;;;;;1.87;1.77;;;12.20;99.90;;;;;;5035279;28;20513;-70
2023/07/06 03:14:00;;;;;;;5.40;1.90;;;12.20;99.90;;;;;;5036068;28;20799;-70
2023/07/06 03:16:27;;;;;;;1.00;0.90;;;12.30;99.90;;;;;;5035791;28;20782;-68
2023/07/06 03:18:53;;;;;;;2.33;2.13;;;12.20;99.90;;;;;;5035818;28;20439;-69
2023/07/06 03:21:21;;;;;;;5.50;3.57;;;12.30;99.90;;;;;;5035657;28;20401;-69
2023/07/06 03:23:49;;;;;;;5.80;2.60;;;12.30;99.90;;;;;;5035829;28;20893;-69
2023/07/06 03:26:15;;;;;;;4.43;2.50;;;12.30;99.90;;;;;;5035704;28;20410;-69
2023/07/06 03:28:41;;;;;;;4.13;2.37;;;12.20;99.90;;;;;;5035598;28;20439;-70
2023/07/06 03:31:07;;;;;;;0.93;0.83;;;12.10;99.90;;;;;;5035514;28;20544;-69
2023/07/06 03:33:32;;;;;;;2.80;1.73;;;12.00;99.90;;;;;;5035777;28;20223;-69
2023/07/06 03:36:01;;;;;;;1.67;1.67;;;11.90;99.90;;;;;;5035930;28;20893;-70
2023/07/06 03:38:27;;;;;;;1.77;1.67;;;11.90;99.90;;;;;;5035616;28;20194;-70
2023/07/06 03:40:54;;;;;;;3.33;1.90;;;12.00;99.90;;;;;;5035281;28;20465;-71
2023/07/06 03:43:20;;;;;;;0.60;0.60;;;12.00;99.90;;;;;;5035468;28;20417;-69
2023/07/06 03:45:48;;;;;;;0.67;0.67;;;11.90;99.90;;;;;;5035492;28;20398;-69
2023/07/06 03:48:15;;;;;;;5.97;3.50;;;11.90;99.90;;;;;;5035312;28;20885;-69
2023/07/06 03:50:41;;;;;;;2.60;1.23;;;11.90;99.90;;;;;;5035158;28;20541;-69
2023/07/06 03:53:07;;;;;;;1.53;1.43;;;11.90;99.90;;;;;;5035113;28;20401;-69
2023/07/06 03:55:33;;;;;;;1.90;1.80;;;11.90;99.90;;;;;;5034070;28;20413;-69
2023/07/06 03:58:00;;;;;;;1.77;1.03;;;12.00;99.90;;;;;;5035482;28;20424;-69
2023/07/06 04:00:28;;;;;;;3.07;2.87;;;12.10;99.90;;;;;;5035306;28;20409;-70
2023/07/06 04:02:57;;;;;;;4.40;2.53;;;12.20;99.90;;;;;;5034735;28;20424;-70
2023/07/06 04:05:31;;;;;;;1.37;1.27;;;12.30;99.90;;;;;;5034964;28;20421;-68
2023/07/06 04:07:58;;;;;;;3.47;2.90;;;12.50;99.90;;;;;;5034960;28;20527;-69
2023/07/06 04:10:23;;;;;;;1.57;1.00;;;12.60;99.90;;;;;;5034916;28;20538;-70
2023/07/06 04:12:49;;;;;;;4.27;2.30;;;12.70;99.90;;;;;;5034668;28;20538;-69
2023/07/06 04:15:18;;;;;;;3.70;3.00;;;12.80;99.90;;;;;;5034927;28;20170;-70
2023/07/06 04:17:47;;;;;;;1.33;1.33;;;12.90;99.90;;;;;;5034726;28;21011;-68
2023/07/06 04:20:22;;;;;;;3.33;3.03;;;13.00;99.90;;;;;;5034729;28;20408;-69
2023/07/06 04:22:51;;;;;;;4.43;1.50;;;13.00;99.90;;;;;;5034471;28;20413;-70
2023/07/06 04:25:19;;;;;;;2.00;1.40;;;13.00;99.90;;;;;;5034646;28;20914;-70
2023/07/06 04:27:46;;;;;;;2.17;2.07;;;13.00;99.90;;;;;;5034550;28;20516;-69
2023/07/06 04:30:13;;;;;;;3.37;1.80;;;13.10;99.90;;;;;;5034340;28;20945;-70
2023/07/06 04:32:38;;;;;;;4.70;3.90;;;13.20;99.90;;;;;;5034352;28;20405;-70
2023/07/06 04:35:06;;;;;;;2.33;1.77;;;13.30;99.90;;;;;;5034427;28;20920;-69
2023/07/06 04:37:32;;;;;;;0.83;0.83;;;13.30;99.90;;;;;;5034456;28;20190;-71
2023/07/06 04:39:58;;;;;;;2.40;2.20;;;13.40;99.90;;;;;;5034350;28;20404;-70
2023/07/06 04:42:27;;;;;;;3.03;1.50;;;13.50;99.90;;;;;;5034102;28;20171;-68
2023/07/06 04:44:54;;;;;;;1.63;1.53;;;13.60;99.90;;;;;;5034272;28;20413;-69
2023/07/06 04:47:23;;;;;;;1.90;1.80;;;13.70;99.90;;;;;;5034036;28;20869;-69
2023/07/06 04:49:52;;;;;;;2.43;2.33;;;13.80;99.90;;;;;;5034156;28;20488;-70
2023/07/06 04:52:18;;;;;;;5.47;3.17;;;14.00;99.90;;;;;;5034067;28;20897;-70
2023/07/06 04:54:44;;;;;;;2.40;2.30;;;14.20;99.90;;;;;;5033973;28;20408;-69
2023/07/06 04:57:16;;;;;;;2.10;1.40;;;14.50;99.90;;;;;;5034073;28;20432;-69
2023/07/06 04:59:43;;;;;;;1.10;0.87;;;14.70;99.90;;;;;;5033827;28;20216;-69
2023/07/06 05:02:10;;;;;;;1.13;1.13;;;14.60;99.90;;;;;;5033845;28;20465;-70
2023/07/06 05:04:40;;;;;;;2.63;1.83;;;14.90;99.90;;;;;;5034152;28;20414;-70
2023/07/06 05:07:06;;;;;;;7.30;2.60;;;14.90;99.90;;;;;;5033509;28;20437;-70
2023/07/06 05:09:32;;;;;;;4.00;3.00;;;14.90;99.90;;;;;;5033667;28;20412;-70
2023/07/06 05:11:58;;;;;;;0.93;0.90;;;15.00;99.90;;;;;;5033591;28;20405;-70
2023/07/06 05:14:24;;;;;;;2.00;1.80;;;15.10;99.90;;;;;;5033685;28;20197;-70
2023/07/06 05:16:50;;;;;;;1.63;1.53;;;15.30;99.90;;;;;;5033782;28;20433;-69
2023/07/06 05:19:16;;;;;;;4.33;3.93;;;15.50;99.90;;;;;;5033686;28;20163;-71
2023/07/06 05:21:42;;;;;;;1.67;1.57;;;15.70;99.90;;;;;;5032785;28;20918;-70
2023/07/06 05:24:08;;;;;;;1.60;1.53;;;15.90;99.90;;;;;;5033752;28;20569;-69
2023/07/06 05:26:34;;;;;;;1.60;1.50;;;16.70;99.90;;;;;;5032852;28;20505;-70
2023/07/06 05:28:59;;;;;;;2.07;1.83;;;16.50;99.80;;;;;;5032519;28;20818;-69
2023/07/06 05:31:26;;;;;;;1.83;1.67;;;16.60;98.80;;;;;;5032511;28;20457;-69
2023/07/06 05:33:52;;;;;;;0.77;0.77;;;16.70;98.80;;;;;;5032675;28;20167;-70
2023/07/06 05:36:18;;;;;;;2.53;2.33;;;;;;;;;;5033283;28;20413;-69
2023/07/06 05:38:44;;;;;;;2.00;1.90;;;16.70;98.40;;;;;;5033142;28;20406;-70
2023/07/06 05:41:09;;;;;;;2.30;2.07;;;16.80;98.60;;;;;;5032844;28;20425;-70
2023/07/06 05:43:35;;;;;;;1.17;1.00;;;17.00;98.70;;;;;;5033232;28;20631;-69
2023/07/06 05:46:00;;;;;;;2.10;1.40;;;17.20;98.20;;;;;;5032671;28;20310;-70
2023/07/06 05:48:26;;;;;;;0.73;0.73;;;17.50;98.40;;;;;;5033266;28;20193;-69
2023/07/06 05:50:52;;;;;;;1.83;1.50;;;17.70;98.40;;;;;;5033223;28;20278;-69
2023/07/06 05:53:17;;;;;;;5.60;2.20;;;17.80;97.90;;;;;;5033212;28;20230;-69
2023/07/06 05:55:43;;;;;;;1.23;1.03;;;17.90;97.70;;;;;;5033240;28;20210;-69
2023/07/06 05:58:11;;;;;;;2.50;2.30;;;18.10;97.70;;;;;;5033162;28;20209;-70
2023/07/06 06:00:39;;;;;;;0.93;0.93;;;18.30;97.00;;;;;;5033253;28;20919;-71
2023/07/06 06:03:05;;;;;;;2.10;1.63;;;18.50;97.20;;;;;;5033150;28;20409;-70
2023/07/06 06:05:33;;;;;;;3.77;1.97;;;18.60;95.60;;;;;;5033382;28;20409;-71
2023/07/06 06:08:00;;;;;;;1.87;1.70;;;18.70;94.90;;;;;;5033052;28;20439;-70
2023/07/06 06:10:26;;;;;;;3.23;2.70;;;18.70;95.00;;;;;;5033042;28;20455;-70
2023/07/06 06:12:52;;;;;;;2.13;1.33;;;18.90;95.20;;;;;;5032931;28;20398;-70
2023/07/06 06:15:17;;;;;;;2.70;1.67;;;19.40;94.70;;;;;;5033148;28;20167;-71
2023/07/06 06:17:44;;;;;;;2.30;2.10;;;20.00;95.00;;;;;;5033100;28;20248;-71
2023/07/06 06:20:10;;;;;;;1.37;1.27;;;20.70;93.30;;;;;;5036447;28;20507;-69
2023/07/06 06:22:37;;;;;;;1.87;1.73;;;21.70;92.50;;;;;;5036777;28;20384;-71
2023/07/06 06:25:03;;;;;;;1.60;1.40;;;23.20;89.50;;;;;;5036876;28;20394;-71
2023/07/06 06:27:29;;;;;;;2.57;1.20;;;24.80;80.50;;;;;;5036769;28;20508;-71
2023/07/06 06:29:55;;;;;;;1.30;0.93;;;26.50;74.30;;;;;;5036691;28;20445;-71
2023/07/06 06:32:22;;;;;;;0.93;0.80;;;26.90;67.20;;;;;;5036525;28;20412;-71
2023/07/06 06:34:48;;;;;;;4.70;1.43;;;27.10;66.80;;;;;;5035483;28;20980;-71
2023/07/06 06:37:16;;;;;;;1.47;1.20;;;27.60;68.20;;;;;;5036531;28;20519;-71
2023/07/06 06:39:41;;;;;;;1.77;1.67;;;28.80;63.70;;;;;;5036979;28;20406;-71
2023/07/06 06:42:07;;;;;;;1.93;1.57;;;30.20;60.60;;;;;;5036413;28;20417;-70
2023/07/06 06:44:34;;;;;;;1.07;1.00;;;31.40;55.70;;;;;;5036159;28;20540;-69
2023/07/06 06:47:04;;;;;;;1.30;1.20;;;32.60;52.90;;;;;;5035718;28;20445;-69
2023/07/06 06:49:33;;;;;;;3.53;1.30;;;33.30;50.30;;;;;;5035108;28;20480;-70
2023/07/06 06:52:01;;;;;;;1.50;1.40;;;33.70;47.10;;;;;;5034627;28;20471;-70
2023/07/06 06:54:28;;;;;;;2.03;1.63;;;33.80;45.80;;;;;;5035773;28;20415;-68
2023/07/06 06:56:53;;;;;;;2.10;1.20;;;33.70;44.50;;;;;;5035029;28;20991;-68
2023/07/06 06:59:19;;;;;;;1.27;1.00;;;33.20;44.00;;;;;;5034422;28;20406;-70
2023/07/06 07:01:45;;;;;;;1.10;1.00;;;32.80;44.50;;;;;;5034145;28;20647;-69
2023/07/06 07:04:11;;;;;;;3.50;2.30;;;32.50;43.30;;;;;;5035936;28;20182;-70
2023/07/06 07:06:40;;;;;;;4.53;1.63;;;31.20;53.40;;;;;;5036205;28;20398;-69
2023/07/06 07:09:09;;;;;;;2.90;1.37;;;31.20;43.00;;;;;;5036056;28;20266;-70
2023/07/06 07:11:35;;;;;;;1.20;1.10;;;30.20;44.60;;;;;;5035791;28;20869;-69
2023/07/06 07:14:01;;;;;;;1.50;1.40;;;29.00;46.00;;;;;;5035908;28;20409;-69
2023/07/06 07:16:26;;;;;;;1.47;1.00;;;27.40;53.50;;;;;;5035918;28;20179;-69
2023/07/06 07:18:54;;;;;;;1.53;1.33;;;27.50;48.40;;;;;;5035837;28;20258;-69
2023/07/06 07:21:20;;;;;;;1.23;1.00;;;27.30;49.70;;;;;;5035658;28;20174;-69
2023/07/06 07:23:48;;;;;;;2.00;1.60;;;27.50;48.00;;;;;;5035755;28;20780;-69
2023/07/06 07:26:24;;;;;;;1.23;1.13;;;27.20;49.10;;;;;;5035775;28;20182;-69
2023/07/06 07:28:51;;;;;;;2.57;1.30;;;27.00;48.40;;;;;;5035721;28;20421;-69
2023/07/06 07:31:18;;;;;;;2.20;1.43;;;27.00;51.00;;;;;;5035270;28;20668;-69
2023/07/06 07:33:46;;;;;;;1.80;1.60;;;26.80;50.20;;;;;;5035616;28;21012;-69
2023/07/06 07:36:13;;;;;;;5.23;1.87;;;26.40;50.00;;;;;;5034881;28;20434;-71
2023/07/06 07:38:39;;;;;;;2.40;1.07;;;26.50;51.20;;;;;;5034120;28;20454;-71
2023/07/06 07:41:07;;;;;;;1.00;0.97;;;27.00;51.70;;;;;;5034219;28;20406;-71
2023/07/06 07:43:36;;;;;;;3.07;1.87;;;27.30;50.00;;;;;;5035582;28;20498;-71
2023/07/06 07:46:06;;;;;;;0.80;0.70;;;27.80;48.70;;;;;;5035470;28;20467;-71
2023/07/06 07:48:38;;;;;;;1.47;1.37;;;28.30;48.30;;;;;;5034870;28;20910;-71
2023/07/06 07:51:07;;;;;;;2.03;1.10;;;28.90;48.40;;;;;;5035495;28;20457;-72
2023/07/06 07:53:36;;;;;;;1.37;1.27;;;30.20;47.50;;;;;;5035036;28;20406;-70
2023/07/06 07:56:04;;;;;;;1.00;0.90;;;31.50;45.10;;;;;;5035488;28;20495;-70
2023/07/06 07:58:31;;;;;;;1.70;1.10;;;31.70;43.40;;;;;;5035166;28;20445;-69
2023/07/06 08:00:57;;;;;;;1.83;1.70;;;32.50;43.00;;;;;;5035122;28;20477;-71
2023/07/06 08:03:27;;;;;;;2.43;1.43;;;33.50;39.90;;;;;;5032302;28;20417;-70
2023/07/06 08:06:05;;;;;;;1.07;0.80;;;33.00;41.10;;;;;;5035441;28;20653;-69
2023/07/06 08:08:32;;;;;;;1.40;1.30;;;32.30;40.10;;;;;;5033517;28;20584;-70
2023/07/06 08:11:08;;;;;;;3.90;1.60;;;31.50;40.50;;;;;;5034317;28;20453;-69
2023/07/06 08:13:35;;;;;;;1.53;1.43;;;30.70;42.20;;;;;;5035116;28;20417;-70
2023/07/06 08:16:00;;;;;;;1.57;1.47;;;30.10;44.60;;;;;;5034206;28;20417;-70
2023/07/06 08:18:27;;;;;;;2.87;2.10;;;29.80;43.90;;;;;;5034112;28;20417;-69
2023/07/06 08:20:56;;;;;;;1.00;0.87;;;29.20;44.70;;;;;;5034529;28;20417;-70
2023/07/06 08:23:24;;;;;;;1.63;0.77;;;29.10;45.30;;;;;;5034764;28;20910;-69
2023/07/06 08:25:51;;;;;;;3.90;1.23;;;29.00;45.30;;;;;;5034543;28;20406;-69
2023/07/06 08:28:31;;;;;;;3.63;1.30;;;28.30;45.40;;;;;;5034311;28;20425;-69
2023/07/06 08:31:01;;;;;;;1.50;1.40;;;27.50;47.70;;;;;;5034185;28;20569;-69
2023/07/06 08:33:27;;;;;;;2.40;1.20;;;26.70;48.80;;;;;;5035085;28;20405;-69
2023/07/06 08:35:53;;;;;;;1.97;1.30;;;25.90;49.60;;;;;;5034394;28;20920;-70
2023/07/06 08:38:19;;;;;;;1.57;1.10;;;25.20;50.20;;;;;;5033208;28;20453;-69
2023/07/06 08:40:52;;;;;;;1.07;0.97;;;24.60;53.10;;;;;;5032739;28;20901;-69
2023/07/06 08:43:25;;;;;;;2.03;1.60;;;24.20;54.80;;;;;;5034557;28;20413;-69
2023/07/06 08:45:56;;;;;;;1.10;1.07;;;23.70;55.30;;;;;;5033383;28;20422;-69
2023/07/06 08:48:26;;;;;;;0.80;0.70;;;23.40;55.20;;;;;;5033365;28;20607;-69
2023/07/06 08:50:59;;;;;;;0.93;0.80;;;23.00;55.20;;;;;;5033197;28;20434;-69
2023/07/06 08:53:32;;;;;;;4.53;1.30;;;23.00;55.80;;;;;;5032861;28;20899;-69
2023/07/06 08:56:01;;;;;;;2.40;1.63;;;22.90;56.60;;;;;;5032102;28;20405;-70
2023/07/06 08:58:33;;;;;;;2.00;1.20;;;23.60;56.20;;;;;;5031746;28;20830;-70
2023/07/06 09:01:07;;;;;;;0.70;0.70;;;24.20;55.00;;;;;;5033265;28;20417;-69
2023/07/06 09:03:39;;;;;;;2.10;1.00;;;25.30;55.90;;;;;;5033527;28;20420;-70
2023/07/06 09:06:08;;;;;;;1.67;1.20;;;26.60;51.10;;;;;;5033645;28;20421;-69
2023/07/06 09:08:34;;;;;;;0.83;0.83;;;26.70;50.40;;;;;;5033758;28;20440;-70
2023/07/06 09:10:59;;;;;;;1.97;0.80;;;27.80;51.00;;;;;;5033551;28;20452;-69
2023/07/06 09:13:27;;;;;;;1.20;1.10;;;29.40;48.00;;;;;;5033909;28;20171;-70
2023/07/06 09:16:00;;;;;;;1.00;0.77;;;30.40;45.30;;;;;;5033927;28;20174;-70
2023/07/06 09:18:28;;;;;;;1.13;0.97;;;30.60;43.50;;;;;;5033836;28;20774;-70
2023/07/06 09:20:56;;;;;;;1.00;1.00;;;30.20;44.40;;;;;;5033616;28;20437;-70
2023/07/06 09:23:24;;;;;;;1.53;1.03;;;30.10;46.70;;;;;;5033806;28;20422;-70
2023/07/06 09:25:50;;;;;;;1.00;0.90;;;30.00;44.40;;;;;;5033659;28;20423;-68
2023/07/06 09:28:18;;;;;;;1.43;1.33;;;30.20;43.40;;;;;;5033434;28;20917;-70
2023/07/06 09:30:45;;;;;;;2.20;1.30;;;29.90;46.20;;;;;;5033654;28;20457;-70
2023/07/06 09:33:26;;;;;;;1.47;0.87;;;30.20;44.10;;;;;;5033324;28;20440;-69
2023/07/06 09:35:54;;;;;;;1.13;1.03;;;31.00;42.50;;;;;;5033438;28;20765;-70
2023/07/06 09:38:20;;;;;;;1.20;1.00;;;31.50;42.10;;;;;;5033316;28;20449;-70
2023/07/06 09:40:46;;;;;;;1.23;1.13;;;32.40;42.60;;;;;;5033499;28;20495;-69
2023/07/06 09:43:37;;;;;;;1.10;0.90;;;32.70;43.40;;;;;;5033218;28;20501;-69
2023/07/06 09:46:04;;;;;;;1.37;0.83;;;33.40;40.00;;;;;;5033378;28;20429;-70
2023/07/06 09:48:38;;;;;;;1.57;0.80;;;33.60;38.70;;;;;;5033173;28;20438;-69
2023/07/06 09:51:12;;;;;;;2.37;1.23;;;32.40;37.40;;;;;;5033136;28;20544;-70
2023/07/06 09:53:50;;;;;;;1.13;1.13;;;30.50;39.50;;;;;;5036088;28;20404;-70
2023/07/06 09:56:16;;;;;;;4.00;0.70;;;29.50;41.80;;;;;;5037467;28;20401;-69
2023/07/06 09:58:42;;;;;;;0.73;0.70;;;29.30;43.10;;;;;;5037412;28;20834;-69
2023/07/06 10:01:17;;;;;;;0.93;0.70;;;29.10;43.00;;;;;;5037224;28;20179;-69
2023/07/06 10:03:54;;;;;;;2.30;0.73;;;29.90;46.90;;;;;;5037521;28;20407;-69
2023/07/06 10:06:34;;;;;;;0.70;0.70;;;30.20;42.80;;;;;;5037193;28;20491;-69
2023/07/06 10:09:17;;;;;;;1.00;0.60;;;30.40;42.20;;;;;;5037211;28;20401;-69
2023/07/06 10:11:43;;;;;;;5.20;1.37;;;29.90;44.30;;;;;;5036940;28;20453;-70
2023/07/06 10:14:44;;;;;;;1.07;0.80;;;29.30;43.70;;;;;;5037255;28;20886;-70
2023/07/06 10:17:22;;;;;;;0.70;0.60;;;28.50;44.10;;;;;;5037153;28;20202;-70
2023/07/06 10:20:21;;;;;;;1.10;0.90;;;28.10;45.20;;;;;;5037071;28;20397;-69
2023/07/06 10:23:14;;;;;;;1.23;1.13;;;28.40;44.10;;;;;;5036903;28;20893;-69
2023/07/06 10:26:07;;;;;;;1.00;0.90;;;29.00;45.40;;;;;;5036877;28;20429;-69
2023/07/06 10:28:41;;;;;;;0.90;0.70;;;29.70;41.60;;;;;;5036976;28;20460;-69
2023/07/06 10:31:12;;;;;;;1.03;0.93;;;30.30;41.40;;;;;;5036752;28;20460;-70
2023/07/06 10:33:46;;;;;;;2.23;2.03;;;30.30;42.00;;;;;;5036941;28;20393;-69
2023/07/06 10:36:14;;;;;;;1.77;0.90;;;29.50;45.70;;;;;;5036761;28;20579;-69
2023/07/06 10:38:40;;;;;;;2.83;1.20;;;29.10;45.50;;;;;;5036515;28;20791;-69
2023/07/06 10:41:09;;;;;;;2.60;2.40;;;29.00;46.20;;;;;;5036659;28;20428;-69
2023/07/06 10:43:38;;;;;;;1.90;1.50;;;28.90;43.70;;;;;;5036561;28;20174;-69
2023/07/06 10:46:34;;;;;;;2.80;1.30;;;28.40;43.30;;;;;;5036423;28;20433;-70
2023/07/06 10:49:20;;;;;;;0.60;0.53;;;28.60;45.90;;;;;;5036468;28;20402;-69
2023/07/06 10:51:55;;;;;;;0.90;0.87;;;28.20;43.70;;;;;;5036395;28;20847;-69
2023/07/06 10:54:23;;;;;;;1.27;1.17;;;27.80;46.30;;;;;;5036454;28;20405;-70
2023/07/06 10:57:02;;;;;;;2.30;1.17;;;27.90;45.40;;;;;;5034931;28;20849;-70
2023/07/06 10:59:39;;;;;;;1.20;1.10;;;27.90;46.30;;;;;;5036248;28;20420;-69
2023/07/06 11:02:32;;;;;;;1.00;0.93;;;27.50;47.00;;;;;;5036107;28;20496;-69
2023/07/06 11:05:15;;;;;;;0.90;0.70;;;27.40;47.80;;;;;;5035704;28;20401;-69
2023/07/06 11:07:52;;;;;;;1.70;1.60;;;26.90;49.70;;;;;;5036118;28;20421;-69
2023/07/06 11:10:21;;;;;;;1.70;1.50;;;26.40;51.30;;;;;;5036011;28;20456;-70
2023/07/06 11:13:15;;;;;;;1.87;1.33;;;26.00;49.70;;;;;;5035897;28;20441;-70
2023/07/06 11:15:43;;;;;;;4.53;1.47;;;25.50;54.00;;;;;;5036256;28;20402;-70
2023/07/06 11:18:19;;;;;;;2.80;1.10;;;25.50;53.30;;;;;;5035875;28;20404;-69
2023/07/06 11:20:54;;;;;;;2.97;1.00;;;25.80;52.70;;;;;;5036011;28;20934;-69
2023/07/06 11:23:36;;;;;;;2.00;1.20;;;26.00;54.90;;;;;;5036066;28;20397;-69
2023/07/06 11:26:13;;;;;;;2.80;1.00;;;26.10;52.30;;;;;;5035614;28;20452;-70
2023/07/06 11:28:40;;;;;;;2.20;1.30;;;26.20;53.50;;;;;;5036125;28;20429;-70
2023/07/06 11:31:44;;;;;;;1.73;1.17;;;26.10;54.10;;;;;;5035862;28;20457;-70
2023/07/06 11:34:49;;;;;;;0.93;0.80;;;26.30;51.70;;;;;;5035256;28;20412;-69
2023/07/06 11:37:34;;;;;;;1.60;1.50;;;26.50;49.90;;;;;;5034767;28;20445;-69
2023/07/06 11:40:48;;;;;;;2.07;1.70;;;26.40;51.80;;;;;;5035898;28;20406;-69
2023/07/06 11:43:27;;;;;;;1.13;0.83;;;26.20;49.90;;;;;;5021906;28;20476;-69
2023/07/06 11:46:23;;;;;;;2.60;2.40;;;26.30;50.70;;;;;;5033951;28;20415;-70
2023/07/06 11:49:09;;;;;;;0.77;0.77;;;26.60;50.40;;;;;;5034776;28;20406;-69
2023/07/06 11:51:37;;;;;;;4.70;1.50;;;26.40;51.40;;;;;;5034076;28;20460;-70
2023/07/06 11:54:05;;;;;;;1.60;1.40;;;26.10;52.30;;;;;;5034437;28;20450;-69
2023/07/06 11:56:39;;;;;;;1.17;1.00;;;26.10;64.90;;;;;;5033605;28;20852;-70
2023/07/06 11:59:25;;;;;;;2.30;1.50;;;26.10;51.00;;;;;;5033482;28;20410;-70
2023/07/06 12:02:03;;;;;;;0.90;0.90;;;26.10;48.50;;;;;;5032997;28;20421;-69
2023/07/06 12:04:29;;;;;;;0.80;0.70;;;26.00;49.10;;;;;;5033730;28;20380;-70
2023/07/06 12:06:56;;;;;;;0.70;0.70;;;26.00;50.50;;;;;;5033544;28;20521;-70
2023/07/06 12:09:24;;;;;;;3.20;1.60;;;26.00;52.50;;;;;;5033517;28;20392;-69
2023/07/06 12:12:15;;;;;;;1.93;1.40;;;26.10;51.60;;;;;;5034085;28;20468;-71
2023/07/06 12:14:42;;;;;;;2.50;1.47;;;26.20;52.40;;;;;;5034694;28;20463;-72
2023/07/06 12:17:11;;;;;;;1.90;1.73;;;26.20;51.60;;;;;;5032664;28;20433;-71
2023/07/06 12:19:41;;;;;;;1.93;1.40;;;25.80;49.20;;;;;;5035178;28;20499;-71
2023/07/06 12:22:18;;;;;;;1.90;1.20;;;25.70;50.80;;;;;;5034009;28;20384;-72
2023/07/06 12:24:44;;;;;;;1.93;1.10;;;25.80;48.70;;;;;;5034294;28;20412;-71
2023/07/06 12:27:16;;;;;;;2.00;1.07;;;25.70;49.50;;;;;;5034127;28;20403;-72
2023/07/06 12:29:45;;;;;;;0.80;0.80;;;25.50;50.50;;;;;;5034121;28;20384;-72
2023/07/06 12:32:21;;;;;;;1.93;1.50;;;25.40;51.80;;;;;;5032858;28;20786;-71
2023/07/06 12:34:50;;;;;;;1.23;1.07;;;25.20;50.80;;;;;;5034080;28;20757;-71
2023/07/06 12:37:17;;;;;;;2.23;1.50;;;25.20;51.70;;;;;;5034202;28;20448;-71
2023/07/06 12:39:46;;;;;;;2.00;1.50;;;25.30;53.10;;;;;;5033883;28;20410;-72
2023/07/06 12:42:14;;;;;;;0.80;0.70;;;25.50;52.10;;;;;;5033632;28;20407;-72
2023/07/06 12:44:42;;;;;;;3.97;1.20;;;25.60;52.30;;;;;;5033185;28;20392;-71
2023/07/06 12:47:37;;;;;;;1.00;0.70;;;25.30;53.70;;;;;;5033462;28;20427;-72
2023/07/06 12:50:09;;;;;;;1.33;0.90;;;25.30;56.60;;;;;;5034322;28;20949;-71
2023/07/06 12:52:37;;;;;;;1.80;1.67;;;25.40;50.70;;;;;;5034413;28;20947;-73
2023/07/06 12:55:03;;;;;;;1.93;1.00;;;25.50;50.60;;;;;;5034283;28;20388;-71
2023/07/06 12:57:35;;;;;;;1.33;1.10;;;25.60;50.10;;;;;;5034263;28;20410;-73
2023/07/06 13:00:16;;;;;;;1.60;1.03;;;25.80;52.60;;;;;;5034813;28;20476;-73
2023/07/06 13:02:42;;;;;;;1.33;1.23;;;25.80;51.40;;;;;;5033950;28;20771;-72